sensor_id;sensor_type;location;lat;lon;timestamp;P1;durP1;ratioP1;P2;durP2;ratioP2
13012;SDS011;22580;57.670;12.006;2023-11-21T00:01:32;0.67;;;0.67;;
13012;SDS011;22580;57.670;12.006;2023-11-21T00:03:59;0.70;;;0.70;;
13012;SDS011;22580;57.670;12.006;2023-11-21T00:06:26;0.70;;;0.70;;
13012;SDS011;22580;57.670;12.006;2023-11-21T00:08:55;0.80;;;0.80;;
13012;SDS011;22580;57.670;12.006;2023-11-21T00:11:24;0.80;;;0.80;;
13012;SDS011;22580;57.670;12.006;2023-11-21T00:13:51;1.10;;;1.00;;
13012;SDS011;22580;57.670;12.006;2023-11-21T00:16:19;1.23;;;1.00;;
13012;SDS011;22580;57.670;12.006;2023-11-21T00:18:47;1.10;;;1.00;;
13012;SDS011;22580;57.670;12.006;2023-11-21T00:21:14;0.70;;;0.70;;
13012;SDS011;22580;57.670;12.006;2023-11-21T00:23:41;0.97;;;0.97;;
13012;SDS011;22580;57.670;12.006;2023-11-21T00:26:08;1.40;;;1.30;;
13012;SDS011;22580;57.670;12.006;2023-11-21T00:28:36;0.70;;;0.70;;
13012;SDS011;22580;57.670;12.006;2023-11-21T00:31:04;1.10;;;1.10;;
13012;SDS011;22580;57.670;12.006;2023-11-21T00:33:31;1.37;;;1.20;;
13012;SDS011;22580;57.670;12.006;2023-11-21T00:35:58;1.40;;;1.30;;
13012;SDS011;22580;57.670;12.006;2023-11-21T00:38:25;1.10;;;1.10;;
13012;SDS011;22580;57.670;12.006;2023-11-21T00:40:53;1.20;;;1.10;;
13012;SDS011;22580;57.670;12.006;2023-11-21T00:43:21;1.30;;;1.20;;
13012;SDS011;22580;57.670;12.006;2023-11-21T00:45:50;1.43;;;1.33;;
13012;SDS011;22580;57.670;12.006;2023-11-21T00:48:17;1.60;;;1.50;;
13012;SDS011;22580;57.670;12.006;2023-11-21T00:50:44;1.40;;;1.30;;
13012;SDS011;22580;57.670;12.006;2023-11-21T00:53:11;1.00;;;1.00;;
13012;SDS011;22580;57.670;12.006;2023-11-21T00:55:38;1.50;;;1.40;;
13012;SDS011;22580;57.670;12.006;2023-11-21T00:58:06;1.10;;;1.10;;
13012;SDS011;22580;57.670;12.006;2023-11-21T01:00:33;1.70;;;1.60;;
13012;SDS011;22580;57.670;12.006;2023-11-21T01:03:03;1.40;;;1.30;;
13012;SDS011;22580;57.670;12.006;2023-11-21T01:05:30;1.50;;;1.40;;
13012;SDS011;22580;57.670;12.006;2023-11-21T01:07:56;1.20;;;1.10;;
13012;SDS011;22580;57.670;12.006;2023-11-21T01:10:24;1.80;;;1.70;;
13012;SDS011;22580;57.670;12.006;2023-11-21T01:12:51;1.40;;;1.30;;
13012;SDS011;22580;57.670;12.006;2023-11-21T01:15:18;0.90;;;0.90;;
13012;SDS011;22580;57.670;12.006;2023-11-21T01:17:45;1.20;;;1.10;;
13012;SDS011;22580;57.670;12.006;2023-11-21T01:20:17;1.17;;;1.13;;
13012;SDS011;22580;57.670;12.006;2023-11-21T01:22:44;0.80;;;0.80;;
13012;SDS011;22580;57.670;12.006;2023-11-21T01:25:14;0.77;;;0.67;;
13012;SDS011;22580;57.670;12.006;2023-11-21T01:27:41;0.93;;;0.93;;
13012;SDS011;22580;57.670;12.006;2023-11-21T01:30:09;0.97;;;0.90;;
13012;SDS011;22580;57.670;12.006;2023-11-21T01:32:36;1.20;;;1.10;;
13012;SDS011;22580;57.670;12.006;2023-11-21T01:35:04;1.13;;;1.10;;
13012;SDS011;22580;57.670;12.006;2023-11-21T01:37:33;1.33;;;1.23;;
13012;SDS011;22580;57.670;12.006;2023-11-21T01:40:00;1.20;;;1.10;;
13012;SDS011;22580;57.670;12.006;2023-11-21T01:42:30;1.50;;;1.40;;
13012;SDS011;22580;57.670;12.006;2023-11-21T01:44:57;1.23;;;1.13;;
13012;SDS011;22580;57.670;12.006;2023-11-21T01:47:24;0.90;;;0.90;;
13012;SDS011;22580;57.670;12.006;2023-11-21T01:49:52;1.23;;;1.13;;
13012;SDS011;22580;57.670;12.006;2023-11-21T01:52:19;1.17;;;1.17;;
13012;SDS011;22580;57.670;12.006;2023-11-21T01:54:48;1.00;;;1.00;;
13012;SDS011;22580;57.670;12.006;2023-11-21T01:57:15;1.00;;;1.00;;
13012;SDS011;22580;57.670;12.006;2023-11-21T01:59:42;0.73;;;0.73;;
13012;SDS011;22580;57.670;12.006;2023-11-21T02:02:09;1.30;;;1.20;;
13012;SDS011;22580;57.670;12.006;2023-11-21T02:04:37;0.90;;;0.90;;
13012;SDS011;22580;57.670;12.006;2023-11-21T02:07:04;0.93;;;0.93;;
13012;SDS011;22580;57.670;12.006;2023-11-21T02:09:31;0.73;;;0.73;;
13012;SDS011;22580;57.670;12.006;2023-11-21T02:12:00;0.60;;;0.60;;
13012;SDS011;22580;57.670;12.006;2023-11-21T02:14:29;1.40;;;1.30;;
13012;SDS011;22580;57.670;12.006;2023-11-21T02:16:57;1.27;;;1.10;;
13012;SDS011;22580;57.670;12.006;2023-11-21T02:19:24;1.20;;;1.10;;
13012;SDS011;22580;57.670;12.006;2023-11-21T02:21:52;1.57;;;1.47;;
13012;SDS011;22580;57.670;12.006;2023-11-21T02:24:21;1.33;;;1.23;;
13012;SDS011;22580;57.670;12.006;2023-11-21T02:26:49;1.60;;;1.50;;
13012;SDS011;22580;57.670;12.006;2023-11-21T02:29:17;0.70;;;0.70;;
13012;SDS011;22580;57.670;12.006;2023-11-21T02:31:47;1.00;;;1.00;;
13012;SDS011;22580;57.670;12.006;2023-11-21T02:34:14;1.47;;;1.33;;
13012;SDS011;22580;57.670;12.006;2023-11-21T02:36:42;1.00;;;1.00;;
13012;SDS011;22580;57.670;12.006;2023-11-21T02:39:09;0.93;;;0.93;;
13012;SDS011;22580;57.670;12.006;2023-11-21T02:41:38;0.90;;;0.90;;
13012;SDS011;22580;57.670;12.006;2023-11-21T02:44:06;1.00;;;1.00;;
13012;SDS011;22580;57.670;12.006;2023-11-21T02:46:33;0.80;;;0.80;;
13012;SDS011;22580;57.670;12.006;2023-11-21T02:49:02;0.60;;;0.60;;
13012;SDS011;22580;57.670;12.006;2023-11-21T02:51:31;0.90;;;0.90;;
13012;SDS011;22580;57.670;12.006;2023-11-21T02:53:59;0.80;;;0.80;;
13012;SDS011;22580;57.670;12.006;2023-11-21T02:56:30;0.77;;;0.77;;
13012;SDS011;22580;57.670;12.006;2023-11-21T02:58:59;1.00;;;1.00;;
13012;SDS011;22580;57.670;12.006;2023-11-21T03:01:27;0.90;;;0.90;;
13012;SDS011;22580;57.670;12.006;2023-11-21T03:03:54;1.70;;;1.50;;
13012;SDS011;22580;57.670;12.006;2023-11-21T03:06:21;1.73;;;1.63;;
13012;SDS011;22580;57.670;12.006;2023-11-21T03:08:50;1.10;;;1.00;;
13012;SDS011;22580;57.670;12.006;2023-11-21T03:11:17;0.77;;;0.77;;
13012;SDS011;22580;57.670;12.006;2023-11-21T03:13:44;0.93;;;0.93;;
13012;SDS011;22580;57.670;12.006;2023-11-21T03:16:14;1.20;;;1.20;;
13012;SDS011;22580;57.670;12.006;2023-11-21T03:18:42;1.50;;;1.40;;
13012;SDS011;22580;57.670;12.006;2023-11-21T03:21:09;1.17;;;1.07;;
13012;SDS011;22580;57.670;12.006;2023-11-21T03:23:37;1.23;;;1.13;;
13012;SDS011;22580;57.670;12.006;2023-11-21T03:26:05;1.20;;;1.10;;
13012;SDS011;22580;57.670;12.006;2023-11-21T03:28:33;1.80;;;1.70;;
13012;SDS011;22580;57.670;12.006;2023-11-21T03:31:00;1.50;;;1.40;;
13012;SDS011;22580;57.670;12.006;2023-11-21T03:33:29;1.20;;;1.10;;
13012;SDS011;22580;57.670;12.006;2023-11-21T03:35:56;0.90;;;0.90;;
13012;SDS011;22580;57.670;12.006;2023-11-21T03:38:23;1.37;;;1.27;;
13012;SDS011;22580;57.670;12.006;2023-11-21T03:40:50;0.67;;;0.67;;
13012;SDS011;22580;57.670;12.006;2023-11-21T03:43:17;0.80;;;0.80;;
13012;SDS011;22580;57.670;12.006;2023-11-21T03:45:44;0.80;;;0.80;;
13012;SDS011;22580;57.670;12.006;2023-11-21T03:48:11;0.80;;;0.80;;
13012;SDS011;22580;57.670;12.006;2023-11-21T03:50:43;0.90;;;0.90;;
13012;SDS011;22580;57.670;12.006;2023-11-21T03:53:10;0.73;;;0.73;;
13012;SDS011;22580;57.670;12.006;2023-11-21T03:55:36;0.90;;;0.90;;
13012;SDS011;22580;57.670;12.006;2023-11-21T03:58:04;0.83;;;0.83;;
13012;SDS011;22580;57.670;12.006;2023-11-21T04:00:31;1.07;;;1.07;;
13012;SDS011;22580;57.670;12.006;2023-11-21T04:02:58;0.97;;;0.97;;
13012;SDS011;22580;57.670;12.006;2023-11-21T04:05:25;0.60;;;0.60;;
13012;SDS011;22580;57.670;12.006;2023-11-21T04:07:53;0.60;;;0.60;;
13012;SDS011;22580;57.670;12.006;2023-11-21T04:10:20;0.50;;;0.50;;
13012;SDS011;22580;57.670;12.006;2023-11-21T04:12:47;0.57;;;0.57;;
13012;SDS011;22580;57.670;12.006;2023-11-21T04:15:14;0.60;;;0.60;;
13012;SDS011;22580;57.670;12.006;2023-11-21T04:17:41;0.30;;;0.30;;
13012;SDS011;22580;57.670;12.006;2023-11-21T04:20:08;0.60;;;0.60;;
13012;SDS011;22580;57.670;12.006;2023-11-21T04:22:36;0.97;;;0.60;;
13012;SDS011;22580;57.670;12.006;2023-11-21T04:25:07;0.57;;;0.57;;
13012;SDS011;22580;57.670;12.006;2023-11-21T04:27:35;0.47;;;0.47;;
13012;SDS011;22580;57.670;12.006;2023-11-21T04:30:02;0.40;;;0.40;;
13012;SDS011;22580;57.670;12.006;2023-11-21T04:32:30;0.50;;;0.50;;
13012;SDS011;22580;57.670;12.006;2023-11-21T04:34:57;1.10;;;1.00;;
13012;SDS011;22580;57.670;12.006;2023-11-21T04:37:24;1.20;;;1.20;;
13012;SDS011;22580;57.670;12.006;2023-11-21T04:39:51;1.50;;;1.40;;
13012;SDS011;22580;57.670;12.006;2023-11-21T04:42:19;1.00;;;1.00;;
13012;SDS011;22580;57.670;12.006;2023-11-21T04:44:46;1.30;;;1.00;;
13012;SDS011;22580;57.670;12.006;2023-11-21T04:47:13;0.83;;;0.83;;
13012;SDS011;22580;57.670;12.006;2023-11-21T04:49:41;1.07;;;1.00;;
13012;SDS011;22580;57.670;12.006;2023-11-21T04:52:09;0.90;;;0.90;;
13012;SDS011;22580;57.670;12.006;2023-11-21T04:54:36;1.40;;;1.30;;
13012;SDS011;22580;57.670;12.006;2023-11-21T04:57:03;1.50;;;1.40;;
13012;SDS011;22580;57.670;12.006;2023-11-21T04:59:34;1.20;;;1.13;;
13012;SDS011;22580;57.670;12.006;2023-11-21T05:02:01;1.20;;;1.10;;
13012;SDS011;22580;57.670;12.006;2023-11-21T05:04:28;1.00;;;1.00;;
13012;SDS011;22580;57.670;12.006;2023-11-21T05:06:55;0.93;;;0.93;;
13012;SDS011;22580;57.670;12.006;2023-11-21T05:09:22;1.43;;;1.33;;
13012;SDS011;22580;57.670;12.006;2023-11-21T05:11:49;1.60;;;1.50;;
13012;SDS011;22580;57.670;12.006;2023-11-21T05:14:16;1.87;;;1.33;;
13012;SDS011;22580;57.670;12.006;2023-11-21T05:16:45;1.20;;;1.10;;
13012;SDS011;22580;57.670;12.006;2023-11-21T05:19:15;1.57;;;1.27;;
13012;SDS011;22580;57.670;12.006;2023-11-21T05:21:43;1.13;;;1.13;;
13012;SDS011;22580;57.670;12.006;2023-11-21T05:24:10;1.30;;;1.20;;
13012;SDS011;22580;57.670;12.006;2023-11-21T05:26:37;1.33;;;0.90;;
13012;SDS011;22580;57.670;12.006;2023-11-21T05:29:04;1.10;;;1.10;;
13012;SDS011;22580;57.670;12.006;2023-11-21T05:31:32;1.40;;;1.30;;
13012;SDS011;22580;57.670;12.006;2023-11-21T05:34:00;1.47;;;1.37;;
13012;SDS011;22580;57.670;12.006;2023-11-21T05:36:27;1.63;;;1.50;;
13012;SDS011;22580;57.670;12.006;2023-11-21T05:38:54;1.50;;;1.40;;
13012;SDS011;22580;57.670;12.006;2023-11-21T05:41:21;1.20;;;1.10;;
13012;SDS011;22580;57.670;12.006;2023-11-21T05:43:48;1.87;;;1.77;;
13012;SDS011;22580;57.670;12.006;2023-11-21T05:46:15;1.70;;;1.60;;
13012;SDS011;22580;57.670;12.006;2023-11-21T05:48:43;2.00;;;1.90;;
13012;SDS011;22580;57.670;12.006;2023-11-21T05:51:12;2.00;;;1.90;;
13012;SDS011;22580;57.670;12.006;2023-11-21T05:53:39;1.70;;;1.60;;
13012;SDS011;22580;57.670;12.006;2023-11-21T05:56:06;1.60;;;1.50;;
13012;SDS011;22580;57.670;12.006;2023-11-21T05:58:34;2.20;;;2.00;;
13012;SDS011;22580;57.670;12.006;2023-11-21T06:01:01;1.67;;;1.57;;
13012;SDS011;22580;57.670;12.006;2023-11-21T06:03:32;1.50;;;1.40;;
13012;SDS011;22580;57.670;12.006;2023-11-21T06:05:59;1.67;;;1.57;;
13012;SDS011;22580;57.670;12.006;2023-11-21T06:08:37;1.60;;;1.50;;
13012;SDS011;22580;57.670;12.006;2023-11-21T06:11:06;1.63;;;1.53;;
13012;SDS011;22580;57.670;12.006;2023-11-21T06:13:33;1.60;;;1.50;;
13012;SDS011;22580;57.670;12.006;2023-11-21T06:15:59;1.63;;;1.53;;
13012;SDS011;22580;57.670;12.006;2023-11-21T06:18:26;1.17;;;1.10;;
13012;SDS011;22580;57.670;12.006;2023-11-21T06:20:54;1.10;;;1.10;;
13012;SDS011;22580;57.670;12.006;2023-11-21T06:23:21;0.90;;;0.90;;
13012;SDS011;22580;57.670;12.006;2023-11-21T06:25:49;0.90;;;0.90;;
13012;SDS011;22580;57.670;12.006;2023-11-21T06:28:16;1.17;;;1.17;;
13012;SDS011;22580;57.670;12.006;2023-11-21T06:30:43;0.90;;;0.90;;
13012;SDS011;22580;57.670;12.006;2023-11-21T06:33:11;1.40;;;1.30;;
13012;SDS011;22580;57.670;12.006;2023-11-21T06:35:38;1.33;;;1.23;;
13012;SDS011;22580;57.670;12.006;2023-11-21T06:38:05;1.20;;;1.10;;
13012;SDS011;22580;57.670;12.006;2023-11-21T06:40:32;1.17;;;1.07;;
13012;SDS011;22580;57.670;12.006;2023-11-21T06:43:01;1.10;;;1.07;;
13012;SDS011;22580;57.670;12.006;2023-11-21T06:45:30;0.90;;;0.90;;
13012;SDS011;22580;57.670;12.006;2023-11-21T06:47:57;1.20;;;1.10;;
13012;SDS011;22580;57.670;12.006;2023-11-21T06:50:24;0.90;;;0.90;;
13012;SDS011;22580;57.670;12.006;2023-11-21T06:52:50;0.70;;;0.70;;
13012;SDS011;22580;57.670;12.006;2023-11-21T06:55:17;1.03;;;0.93;;
13012;SDS011;22580;57.670;12.006;2023-11-21T06:57:44;1.23;;;1.13;;
13012;SDS011;22580;57.670;12.006;2023-11-21T07:00:14;0.90;;;0.87;;
13012;SDS011;22580;57.670;12.006;2023-11-21T07:02:44;0.60;;;0.60;;
13012;SDS011;22580;57.670;12.006;2023-11-21T07:05:11;0.90;;;0.40;;
13012;SDS011;22580;57.670;12.006;2023-11-21T07:07:40;0.70;;;0.70;;
13012;SDS011;22580;57.670;12.006;2023-11-21T07:10:07;1.00;;;1.00;;
13012;SDS011;22580;57.670;12.006;2023-11-21T07:12:34;1.30;;;1.20;;
13012;SDS011;22580;57.670;12.006;2023-11-21T07:15:02;1.33;;;1.17;;
13012;SDS011;22580;57.670;12.006;2023-11-21T07:17:32;0.70;;;0.70;;
13012;SDS011;22580;57.670;12.006;2023-11-21T07:20:00;1.10;;;1.10;;
13012;SDS011;22580;57.670;12.006;2023-11-21T07:22:27;2.83;;;2.63;;
13012;SDS011;22580;57.670;12.006;2023-11-21T07:24:54;2.07;;;1.97;;
13012;SDS011;22580;57.670;12.006;2023-11-21T07:27:22;1.57;;;1.47;;
13012;SDS011;22580;57.670;12.006;2023-11-21T07:29:49;1.07;;;1.07;;
13012;SDS011;22580;57.670;12.006;2023-11-21T07:32:16;1.80;;;1.70;;
13012;SDS011;22580;57.670;12.006;2023-11-21T07:34:44;1.50;;;1.40;;
13012;SDS011;22580;57.670;12.006;2023-11-21T07:37:11;2.00;;;1.70;;
13012;SDS011;22580;57.670;12.006;2023-11-21T07:39:38;1.27;;;1.20;;
13012;SDS011;22580;57.670;12.006;2023-11-21T07:42:07;1.40;;;1.20;;
13012;SDS011;22580;57.670;12.006;2023-11-21T07:44:34;1.10;;;1.10;;
13012;SDS011;22580;57.670;12.006;2023-11-21T07:47:01;1.20;;;1.10;;
13012;SDS011;22580;57.670;12.006;2023-11-21T07:49:29;0.90;;;0.90;;
13012;SDS011;22580;57.670;12.006;2023-11-21T07:51:58;1.30;;;1.20;;
13012;SDS011;22580;57.670;12.006;2023-11-21T07:54:24;0.77;;;0.77;;
13012;SDS011;22580;57.670;12.006;2023-11-21T07:56:51;0.80;;;0.80;;
13012;SDS011;22580;57.670;12.006;2023-11-21T07:59:18;1.13;;;1.10;;
13012;SDS011;22580;57.670;12.006;2023-11-21T08:01:45;1.27;;;1.20;;
13012;SDS011;22580;57.670;12.006;2023-11-21T08:04:12;1.00;;;1.00;;
13012;SDS011;22580;57.670;12.006;2023-11-21T08:06:39;1.13;;;1.10;;
13012;SDS011;22580;57.670;12.006;2023-11-21T08:09:08;1.30;;;1.20;;
13012;SDS011;22580;57.670;12.006;2023-11-21T08:11:37;0.90;;;0.90;;
13012;SDS011;22580;57.670;12.006;2023-11-21T08:14:04;1.40;;;1.30;;
13012;SDS011;22580;57.670;12.006;2023-11-21T08:16:31;1.50;;;1.00;;
13012;SDS011;22580;57.670;12.006;2023-11-21T08:18:57;1.07;;;1.07;;
13012;SDS011;22580;57.670;12.006;2023-11-21T08:21:24;1.10;;;1.10;;
13012;SDS011;22580;57.670;12.006;2023-11-21T08:23:54;0.70;;;0.70;;
13012;SDS011;22580;57.670;12.006;2023-11-21T08:26:23;1.40;;;1.30;;
13012;SDS011;22580;57.670;12.006;2023-11-21T08:28:50;1.20;;;1.20;;
13012;SDS011;22580;57.670;12.006;2023-11-21T08:31:22;1.23;;;1.13;;
13012;SDS011;22580;57.670;12.006;2023-11-21T08:33:50;1.50;;;1.40;;
13012;SDS011;22580;57.670;12.006;2023-11-21T08:36:18;1.50;;;1.40;;
13012;SDS011;22580;57.670;12.006;2023-11-21T08:38:46;1.60;;;1.50;;
13012;SDS011;22580;57.670;12.006;2023-11-21T08:41:14;1.40;;;1.30;;
13012;SDS011;22580;57.670;12.006;2023-11-21T08:43:42;1.30;;;1.20;;
13012;SDS011;22580;57.670;12.006;2023-11-21T08:46:10;0.80;;;0.80;;
13012;SDS011;22580;57.670;12.006;2023-11-21T08:48:37;0.80;;;0.80;;
13012;SDS011;22580;57.670;12.006;2023-11-21T08:51:04;0.60;;;0.60;;
13012;SDS011;22580;57.670;12.006;2023-11-21T08:53:31;0.90;;;0.87;;
13012;SDS011;22580;57.670;12.006;2023-11-21T08:55:58;0.83;;;0.83;;
13012;SDS011;22580;57.670;12.006;2023-11-21T08:58:25;0.90;;;0.90;;
13012;SDS011;22580;57.670;12.006;2023-11-21T09:00:55;1.53;;;1.40;;
13012;SDS011;22580;57.670;12.006;2023-11-21T09:03:22;1.30;;;1.20;;
13012;SDS011;22580;57.670;12.006;2023-11-21T09:05:49;1.03;;;1.03;;
13012;SDS011;22580;57.670;12.006;2023-11-21T09:08:16;1.00;;;1.00;;
13012;SDS011;22580;57.670;12.006;2023-11-21T09:10:43;1.30;;;1.20;;
13012;SDS011;22580;57.670;12.006;2023-11-21T09:13:12;0.87;;;0.80;;
13012;SDS011;22580;57.670;12.006;2023-11-21T09:15:42;0.90;;;0.90;;
13012;SDS011;22580;57.670;12.006;2023-11-21T09:18:12;0.80;;;0.80;;
13012;SDS011;22580;57.670;12.006;2023-11-21T09:20:40;1.00;;;1.00;;
13012;SDS011;22580;57.670;12.006;2023-11-21T09:23:07;1.50;;;1.40;;
13012;SDS011;22580;57.670;12.006;2023-11-21T09:25:34;1.37;;;1.27;;
13012;SDS011;22580;57.670;12.006;2023-11-21T09:28:02;1.40;;;1.17;;
13012;SDS011;22580;57.670;12.006;2023-11-21T09:30:33;1.43;;;1.33;;
13012;SDS011;22580;57.670;12.006;2023-11-21T09:33:00;0.87;;;0.87;;
13012;SDS011;22580;57.670;12.006;2023-11-21T09:35:28;1.20;;;1.10;;
13012;SDS011;22580;57.670;12.006;2023-11-21T09:37:55;0.80;;;0.80;;
13012;SDS011;22580;57.670;12.006;2023-11-21T09:40:22;1.67;;;1.57;;
13012;SDS011;22580;57.670;12.006;2023-11-21T09:42:49;1.63;;;1.53;;
13012;SDS011;22580;57.670;12.006;2023-11-21T09:45:24;2.20;;;2.00;;
13012;SDS011;22580;57.670;12.006;2023-11-21T09:47:52;1.60;;;1.50;;
13012;SDS011;22580;57.670;12.006;2023-11-21T09:50:20;1.20;;;1.10;;
13012;SDS011;22580;57.670;12.006;2023-11-21T09:52:52;1.70;;;1.60;;
13012;SDS011;22580;57.670;12.006;2023-11-21T09:55:26;1.70;;;1.60;;
13012;SDS011;22580;57.670;12.006;2023-11-21T09:57:55;1.40;;;1.30;;
13012;SDS011;22580;57.670;12.006;2023-11-21T10:00:23;1.80;;;1.70;;
13012;SDS011;22580;57.670;12.006;2023-11-21T10:02:50;1.70;;;1.60;;
13012;SDS011;22580;57.670;12.006;2023-11-21T10:05:20;1.67;;;1.57;;
13012;SDS011;22580;57.670;12.006;2023-11-21T10:07:48;1.40;;;1.30;;
13012;SDS011;22580;57.670;12.006;2023-11-21T10:10:18;1.50;;;1.40;;
13012;SDS011;22580;57.670;12.006;2023-11-21T10:12:48;1.40;;;1.30;;
13012;SDS011;22580;57.670;12.006;2023-11-21T10:15:20;1.30;;;1.20;;
13012;SDS011;22580;57.670;12.006;2023-11-21T10:17:50;1.10;;;1.10;;
13012;SDS011;22580;57.670;12.006;2023-11-21T10:20:19;1.40;;;1.30;;
13012;SDS011;22580;57.670;12.006;2023-11-21T10:22:46;1.33;;;1.23;;
13012;SDS011;22580;57.670;12.006;2023-11-21T10:25:14;1.30;;;1.20;;
13012;SDS011;22580;57.670;12.006;2023-11-21T10:27:43;0.77;;;0.77;;
13012;SDS011;22580;57.670;12.006;2023-11-21T10:30:15;0.83;;;0.83;;
13012;SDS011;22580;57.670;12.006;2023-11-21T10:32:43;0.93;;;0.93;;
13012;SDS011;22580;57.670;12.006;2023-11-21T10:35:11;1.00;;;1.00;;
13012;SDS011;22580;57.670;12.006;2023-11-21T10:37:38;1.10;;;1.10;;
13012;SDS011;22580;57.670;12.006;2023-11-21T10:40:09;1.43;;;1.13;;
13012;SDS011;22580;57.670;12.006;2023-11-21T10:42:38;0.80;;;0.80;;
13012;SDS011;22580;57.670;12.006;2023-11-21T10:45:06;0.60;;;0.60;;
13012;SDS011;22580;57.670;12.006;2023-11-21T10:47:38;1.40;;;1.30;;
13012;SDS011;22580;57.670;12.006;2023-11-21T10:50:05;1.30;;;1.20;;
13012;SDS011;22580;57.670;12.006;2023-11-21T10:52:36;1.20;;;1.10;;
13012;SDS011;22580;57.670;12.006;2023-11-21T10:55:10;1.30;;;1.20;;
13012;SDS011;22580;57.670;12.006;2023-11-21T10:57:45;1.00;;;1.00;;
13012;SDS011;22580;57.670;12.006;2023-11-21T11:00:15;0.83;;;0.83;;
13012;SDS011;22580;57.670;12.006;2023-11-21T11:02:46;1.53;;;1.43;;
13012;SDS011;22580;57.670;12.006;2023-11-21T11:05:16;1.03;;;1.03;;
13012;SDS011;22580;57.670;12.006;2023-11-21T11:07:46;0.80;;;0.80;;
13012;SDS011;22580;57.670;12.006;2023-11-21T11:10:19;1.00;;;1.00;;
13012;SDS011;22580;57.670;12.006;2023-11-21T11:12:49;1.47;;;1.37;;
13012;SDS011;22580;57.670;12.006;2023-11-21T11:15:17;1.67;;;1.57;;
13012;SDS011;22580;57.670;12.006;2023-11-21T11:17:45;2.17;;;1.20;;
13012;SDS011;22580;57.670;12.006;2023-11-21T11:20:13;1.40;;;1.30;;
13012;SDS011;22580;57.670;12.006;2023-11-21T11:22:44;1.30;;;1.20;;
13012;SDS011;22580;57.670;12.006;2023-11-21T11:25:30;1.20;;;1.10;;
13012;SDS011;22580;57.670;12.006;2023-11-21T11:28:10;0.93;;;0.93;;
13012;SDS011;22580;57.670;12.006;2023-11-21T11:30:42;0.90;;;0.90;;
13012;SDS011;22580;57.670;12.006;2023-11-21T11:33:22;0.60;;;0.60;;
13012;SDS011;22580;57.670;12.006;2023-11-21T11:36:00;0.50;;;0.50;;
13012;SDS011;22580;57.670;12.006;2023-11-21T11:38:31;1.10;;;1.00;;
13012;SDS011;22580;57.670;12.006;2023-11-21T11:41:01;1.10;;;1.00;;
13012;SDS011;22580;57.670;12.006;2023-11-21T11:43:31;0.80;;;0.80;;
13012;SDS011;22580;57.670;12.006;2023-11-21T11:46:05;0.80;;;0.80;;
13012;SDS011;22580;57.670;12.006;2023-11-21T11:48:34;0.80;;;0.80;;
13012;SDS011;22580;57.670;12.006;2023-11-21T11:51:05;0.73;;;0.73;;
13012;SDS011;22580;57.670;12.006;2023-11-21T11:53:37;0.50;;;0.50;;
13012;SDS011;22580;57.670;12.006;2023-11-21T11:56:19;1.30;;;1.00;;
13012;SDS011;22580;57.670;12.006;2023-11-21T11:58:52;0.80;;;0.80;;
13012;SDS011;22580;57.670;12.006;2023-11-21T12:01:20;0.87;;;0.87;;
13012;SDS011;22580;57.670;12.006;2023-11-21T12:06:48;0.70;;;0.70;;
13012;SDS011;22580;57.670;12.006;2023-11-21T12:09:18;0.77;;;0.77;;
13012;SDS011;22580;57.670;12.006;2023-11-21T12:11:46;0.80;;;0.80;;
13012;SDS011;22580;57.670;12.006;2023-11-21T12:14:15;0.80;;;0.80;;
13012;SDS011;22580;57.670;12.006;2023-11-21T12:16:43;0.70;;;0.63;;
13012;SDS011;22580;57.670;12.006;2023-11-21T12:19:10;1.00;;;1.00;;
13012;SDS011;22580;57.670;12.006;2023-11-21T12:21:37;1.10;;;1.00;;
13012;SDS011;22580;57.670;12.006;2023-11-21T12:24:06;0.83;;;0.83;;
13012;SDS011;22580;57.670;12.006;2023-11-21T12:26:34;0.50;;;0.50;;
13012;SDS011;22580;57.670;12.006;2023-11-21T12:29:01;0.40;;;0.40;;
13012;SDS011;22580;57.670;12.006;2023-11-21T12:31:31;0.40;;;0.40;;
13012;SDS011;22580;57.670;12.006;2023-11-21T12:33:57;0.87;;;0.70;;
13012;SDS011;22580;57.670;12.006;2023-11-21T12:36:25;0.50;;;0.50;;
13012;SDS011;22580;57.670;12.006;2023-11-21T12:38:54;0.70;;;0.70;;
13012;SDS011;22580;57.670;12.006;2023-11-21T12:41:21;0.70;;;0.70;;
13012;SDS011;22580;57.670;12.006;2023-11-21T12:43:49;0.60;;;0.60;;
13012;SDS011;22580;57.670;12.006;2023-11-21T12:46:17;0.70;;;0.67;;
13012;SDS011;22580;57.670;12.006;2023-11-21T12:48:47;1.20;;;1.10;;
13012;SDS011;22580;57.670;12.006;2023-11-21T12:51:14;1.10;;;1.10;;
13012;SDS011;22580;57.670;12.006;2023-11-21T12:53:41;0.80;;;0.80;;
13012;SDS011;22580;57.670;12.006;2023-11-21T12:56:12;0.70;;;0.70;;
13012;SDS011;22580;57.670;12.006;2023-11-21T12:58:45;0.70;;;0.70;;
13012;SDS011;22580;57.670;12.006;2023-11-21T13:01:13;0.70;;;0.70;;
13012;SDS011;22580;57.670;12.006;2023-11-21T13:03:47;0.57;;;0.57;;
13012;SDS011;22580;57.670;12.006;2023-11-21T13:06:16;0.73;;;0.70;;
13012;SDS011;22580;57.670;12.006;2023-11-21T13:08:48;1.27;;;0.80;;
13012;SDS011;22580;57.670;12.006;2023-11-21T13:11:15;1.00;;;1.00;;
13012;SDS011;22580;57.670;12.006;2023-11-21T13:13:43;0.70;;;0.70;;
13012;SDS011;22580;57.670;12.006;2023-11-21T13:16:10;0.60;;;0.60;;
13012;SDS011;22580;57.670;12.006;2023-11-21T13:18:38;1.20;;;1.10;;
13012;SDS011;22580;57.670;12.006;2023-11-21T13:21:08;0.80;;;0.80;;
13012;SDS011;22580;57.670;12.006;2023-11-21T13:23:38;1.10;;;1.00;;
13012;SDS011;22580;57.670;12.006;2023-11-21T13:26:06;0.80;;;0.80;;
13012;SDS011;22580;57.670;12.006;2023-11-21T13:28:34;0.77;;;0.77;;
13012;SDS011;22580;57.670;12.006;2023-11-21T13:31:03;0.57;;;0.57;;
13012;SDS011;22580;57.670;12.006;2023-11-21T13:33:45;0.80;;;0.80;;
13012;SDS011;22580;57.670;12.006;2023-11-21T13:36:21;0.60;;;0.60;;
13012;SDS011;22580;57.670;12.006;2023-11-21T13:38:49;0.90;;;0.90;;
13012;SDS011;22580;57.670;12.006;2023-11-21T13:41:17;0.50;;;0.50;;
13012;SDS011;22580;57.670;12.006;2023-11-21T13:43:44;0.53;;;0.53;;
13012;SDS011;22580;57.670;12.006;2023-11-21T13:46:18;0.50;;;0.50;;
13012;SDS011;22580;57.670;12.006;2023-11-21T13:48:48;0.80;;;0.80;;
13012;SDS011;22580;57.670;12.006;2023-11-21T13:51:22;0.83;;;0.83;;
13012;SDS011;22580;57.670;12.006;2023-11-21T13:53:56;0.87;;;0.87;;
13012;SDS011;22580;57.670;12.006;2023-11-21T13:56:24;0.50;;;0.50;;
13012;SDS011;22580;57.670;12.006;2023-11-21T13:58:53;0.53;;;0.53;;
13012;SDS011;22580;57.670;12.006;2023-11-21T14:01:21;0.70;;;0.70;;
13012;SDS011;22580;57.670;12.006;2023-11-21T14:04:10;0.70;;;0.70;;
13012;SDS011;22580;57.670;12.006;2023-11-21T14:06:45;0.50;;;0.50;;
13012;SDS011;22580;57.670;12.006;2023-11-21T14:09:14;0.80;;;0.80;;
13012;SDS011;22580;57.670;12.006;2023-11-21T14:11:48;1.00;;;0.80;;
13012;SDS011;22580;57.670;12.006;2023-11-21T14:14:17;0.50;;;0.50;;
13012;SDS011;22580;57.670;12.006;2023-11-21T14:16:44;0.87;;;0.87;;
13012;SDS011;22580;57.670;12.006;2023-11-21T14:19:11;0.50;;;0.50;;
13012;SDS011;22580;57.670;12.006;2023-11-21T14:21:42;0.40;;;0.40;;
13012;SDS011;22580;57.670;12.006;2023-11-21T14:24:11;0.40;;;0.40;;
13012;SDS011;22580;57.670;12.006;2023-11-21T14:26:40;0.40;;;0.40;;
13012;SDS011;22580;57.670;12.006;2023-11-21T14:29:07;0.20;;;0.20;;
13012;SDS011;22580;57.670;12.006;2023-11-21T14:31:37;0.30;;;0.30;;
13012;SDS011;22580;57.670;12.006;2023-11-21T14:34:04;0.23;;;0.23;;
13012;SDS011;22580;57.670;12.006;2023-11-21T14:36:32;0.23;;;0.23;;
13012;SDS011;22580;57.670;12.006;2023-11-21T14:38:59;0.20;;;0.20;;
13012;SDS011;22580;57.670;12.006;2023-11-21T14:41:27;0.20;;;0.20;;
13012;SDS011;22580;57.670;12.006;2023-11-21T14:43:54;0.23;;;0.23;;